createdAt,value
2018-03-29T00:00:28.411Z,77.30
2018-03-29T00:02:55.957Z,78.29
2018-03-29T00:05:23.633Z,75.37
2018-03-29T00:07:52.077Z,75.66
2018-03-29T00:10:19.783Z,76.31
2018-03-29T00:12:47.432Z,76.00
2018-03-29T00:15:14.977Z,75.93
2018-03-29T00:17:42.665Z,78.06
2018-03-29T00:20:10.546Z,74.96
2018-03-29T00:22:38.235Z,76.45
2018-03-29T00:25:05.992Z,77.22
2018-03-29T00:27:33.587Z,76.46
2018-03-29T00:30:01.833Z,77.34
2018-03-29T00:32:30.095Z,76.99
2018-03-29T00:34:57.793Z,75.99
2018-03-29T00:37:25.432Z,76.27
2018-03-29T00:39:53.121Z,76.50
2018-03-29T00:42:20.845Z,77.78
2018-03-29T00:44:48.406Z,78.25
2018-03-29T00:47:16.110Z,76.75
2018-03-29T00:49:43.847Z,76.74
2018-03-29T00:52:11.807Z,76.73
2018-03-29T00:54:39.646Z,77.31
2018-03-29T00:57:07.192Z,75.97
2018-03-29T00:59:35.314Z,76.80
2018-03-29T01:02:03.452Z,76.03
2018-03-29T01:04:31.012Z,75.08
2018-03-29T01:06:58.656Z,74.08
2018-03-29T01:09:26.428Z,73.57
2018-03-29T01:11:53.922Z,74.93
2018-03-29T01:14:21.532Z,73.06
2018-03-29T01:16:49.313Z,72.12
2018-03-29T01:19:16.966Z,71.93
2018-03-29T01:21:44.693Z,69.84
2018-03-29T01:24:12.552Z,70.92
2018-03-29T01:26:40.687Z,71.95
2018-03-29T01:29:08.255Z,72.32
2018-03-29T01:31:35.953Z,73.25
2018-03-29T01:34:03.793Z,73.16
2018-03-29T01:36:31.718Z,72.01
2018-03-29T01:38:59.397Z,72.10
2018-03-29T01:41:28.229Z,73.11
2018-03-29T01:43:55.959Z,72.11
2018-03-29T01:46:23.502Z,73.31
2018-03-29T01:48:51.074Z,71.38
2018-03-29T01:51:18.722Z,72.59
2018-03-29T01:53:46.554Z,73.22
2018-03-29T01:56:14.252Z,71.75
2018-03-29T01:58:41.783Z,71.30
2018-03-29T02:01:09.767Z,72.05
2018-03-29T02:03:37.292Z,72.81
2018-03-29T02:06:04.914Z,71.55
2018-03-29T02:08:33.465Z,72.27
2018-03-29T02:11:01.049Z,71.74
2018-03-29T02:13:28.819Z,71.75
2018-03-29T02:15:56.527Z,71.43
2018-03-29T02:18:24.178Z,71.83
2018-03-29T02:20:51.823Z,73.26
2018-03-29T02:23:19.352Z,72.14
2018-03-29T02:25:47.032Z,71.37
2018-03-29T02:28:15.613Z,74.43
2018-03-29T02:30:43.137Z,72.46
2018-03-29T02:33:10.950Z,73.27
2018-03-29T02:35:38.611Z,73.08
2018-03-29T02:38:06.483Z,74.25
2018-03-29T02:40:34.137Z,74.43
2018-03-29T02:43:01.788Z,72.81
2018-03-29T02:45:29.783Z,74.07
2018-03-29T02:47:57.944Z,74.96
2018-03-29T02:50:25.569Z,74.56
2018-03-29T02:52:53.114Z,74.28
2018-03-29T02:55:20.647Z,73.86
2018-03-29T02:57:48.261Z,74.70
2018-03-29T03:00:16.505Z,74.25
2018-03-29T03:02:44.207Z,73.91
2018-03-29T03:05:11.748Z,74.69
2018-03-29T03:07:39.364Z,73.09
2018-03-29T03:10:07.004Z,72.75
2018-03-29T03:12:34.602Z,73.86
2018-03-29T03:15:02.137Z,73.89
2018-03-29T03:17:30.767Z,77.19
2018-03-29T03:19:58.408Z,77.88
2018-03-29T03:22:26.107Z,76.31
2018-03-29T03:24:53.884Z,76.89
2018-03-29T03:27:21.517Z,78.08
2018-03-29T03:29:49.107Z,78.48
2018-03-29T03:32:16.634Z,78.49
2018-03-29T03:34:44.544Z,80.58
2018-03-29T03:37:12.177Z,80.33
2018-03-29T03:39:39.713Z,81.09
2018-03-29T03:42:07.584Z,82.31
2018-03-29T03:44:35.151Z,81.94
2018-03-29T03:47:03.087Z,80.40
2018-03-29T03:49:31.207Z,81.03
2018-03-29T03:51:58.811Z,80.82
2018-03-29T03:54:26.388Z,80.96
2018-03-29T03:56:53.906Z,80.59
2018-03-29T03:59:21.557Z,79.60
2018-03-29T04:01:49.147Z,77.56
2018-03-29T04:04:16.778Z,77.60
2018-03-29T04:06:44.674Z,78.74
2018-03-29T04:09:13.304Z,79.45
2018-03-29T04:11:40.967Z,80.16
2018-03-29T04:14:08.538Z,81.31
2018-03-29T04:16:36.173Z,83.60
2018-03-29T04:19:04.107Z,83.98
2018-03-29T04:21:32.267Z,86.10
2018-03-29T04:23:59.992Z,86.53
2018-03-29T04:26:27.597Z,87.55
2018-03-29T04:28:55.632Z,88.96
2018-03-29T04:31:23.195Z,89.67
2018-03-29T04:33:50.822Z,88.63
2018-03-29T04:36:18.737Z,88.88
2018-03-29T04:38:46.338Z,88.89
2018-03-29T04:41:14.079Z,88.54
2018-03-29T04:43:41.792Z,87.74
2018-03-29T04:46:10.001Z,88.69
2018-03-29T04:48:37.628Z,89.03
2018-03-29T04:51:05.395Z,89.50
2018-03-29T04:53:33.055Z,87.54
2018-03-29T04:56:00.605Z,87.16
2018-03-29T04:58:28.382Z,87.39
2018-03-29T05:00:56.011Z,87.61
2018-03-29T05:03:23.803Z,87.34
2018-03-29T05:05:51.659Z,87.17
2018-03-29T05:08:19.193Z,87.04
2018-03-29T05:10:46.733Z,86.83
2018-03-29T05:13:14.389Z,88.26
2018-03-29T05:15:41.934Z,89.21
2018-03-29T05:18:09.723Z,89.29
2018-03-29T05:20:37.342Z,88.19
2018-03-29T05:23:04.962Z,87.73
2018-03-29T05:25:35.148Z,85.42
2018-03-29T05:28:02.824Z,86.88
2018-03-29T05:30:30.642Z,86.88
2018-03-29T05:32:59.085Z,88.50
2018-03-29T05:35:26.805Z,89.18
2018-03-29T05:37:54.420Z,89.03
2018-03-29T05:40:22.098Z,90.03
2018-03-29T05:42:49.660Z,90.59
2018-03-29T05:45:17.218Z,90.67
2018-03-29T05:47:44.763Z,89.36
2018-03-29T05:50:12.289Z,86.37
2018-03-29T05:52:40.210Z,85.07
2018-03-29T05:55:07.828Z,85.64
2018-03-29T05:57:35.474Z,86.24
2018-03-29T06:00:03.109Z,86.10
2018-03-29T06:02:30.790Z,87.27
2018-03-29T06:04:58.440Z,85.48
2018-03-29T06:07:26.129Z,81.58
2018-03-29T06:09:54.433Z,79.29
2018-03-29T06:12:22.008Z,79.84
2018-03-29T06:14:49.546Z,80.66
2018-03-29T06:17:22.710Z,79.43
2018-03-29T06:19:50.380Z,78.79
2018-03-29T06:22:18.304Z,78.75
2018-03-29T06:24:45.915Z,79.88
2018-03-29T06:27:13.526Z,79.33
2018-03-29T06:29:41.175Z,78.62
2018-03-29T06:32:08.866Z,76.86
2018-03-29T06:34:36.596Z,75.20
2018-03-29T06:37:04.540Z,74.06
2018-03-29T06:39:32.089Z,72.71
2018-03-29T06:41:59.760Z,71.29
2018-03-29T06:44:27.320Z,73.13
2018-03-29T06:46:55.255Z,73.19
2018-03-29T06:49:22.835Z,73.59
2018-03-29T06:51:50.804Z,71.49
2018-03-29T06:54:18.536Z,69.65
2018-03-29T06:56:46.200Z,67.44
2018-03-29T06:59:13.944Z,64.04
2018-03-29T07:01:41.552Z,62.59
2018-03-29T07:04:10.408Z,62.98
2018-03-29T07:06:38.002Z,63.12
2018-03-29T07:09:06.029Z,63.88
2018-03-29T07:11:33.574Z,62.55
2018-03-29T07:14:01.276Z,60.77
2018-03-29T07:16:28.860Z,61.66
2018-03-29T07:18:56.499Z,56.82
2018-03-29T07:21:24.227Z,58.89
2018-03-29T07:23:51.987Z,55.96
2018-03-29T07:26:19.706Z,54.13
2018-03-29T07:28:47.359Z,57.79
2018-03-29T07:31:14.966Z,56.82
2018-03-29T07:33:42.640Z,54.72
2018-03-29T07:36:10.240Z,53.45
2018-03-29T07:38:37.791Z,51.03
2018-03-29T07:41:05.361Z,51.56
2018-03-29T07:43:32.927Z,54.46
2018-03-29T07:46:00.676Z,52.01
2018-03-29T07:48:28.221Z,50.31
2018-03-29T07:50:55.901Z,50.25
2018-03-29T07:53:23.637Z,48.95
2018-03-29T07:55:51.380Z,50.49
2018-03-29T07:58:20.052Z,49.49
2018-03-29T08:00:47.969Z,46.63
2018-03-29T08:03:15.581Z,43.74
2018-03-29T08:05:43.200Z,45.09
2018-03-29T08:08:10.931Z,44.80
2018-03-29T08:10:38.541Z,46.59
2018-03-29T08:13:06.935Z,43.93
2018-03-29T08:15:34.501Z,47.49
2018-03-29T08:18:02.756Z,43.68
2018-03-29T08:20:30.332Z,47.89
2018-03-29T08:22:57.916Z,42.60
2018-03-29T08:25:25.542Z,42.54
2018-03-29T08:27:53.212Z,43.06
2018-03-29T08:30:20.810Z,43.64
2018-03-29T08:32:49.311Z,46.36
2018-03-29T08:35:17.058Z,43.73
2018-03-29T08:37:44.802Z,44.14
2018-03-29T08:40:12.472Z,42.47
2018-03-29T08:42:40.072Z,43.00
2018-03-29T08:45:07.858Z,42.66
2018-03-29T08:47:35.445Z,43.86
2018-03-29T08:50:03.283Z,43.05
2018-03-29T08:52:31.016Z,41.43
2018-03-29T08:54:58.797Z,40.06
2018-03-29T08:57:26.647Z,39.12
2018-03-29T08:59:54.497Z,39.69
2018-03-29T09:02:22.400Z,41.50
2018-03-29T09:04:50.068Z,42.20
2018-03-29T09:07:17.732Z,41.51
2018-03-29T09:09:45.475Z,42.19
2018-03-29T09:12:13.307Z,41.35
2018-03-29T09:14:40.871Z,40.50
2018-03-29T09:17:08.736Z,35.45
2018-03-29T09:19:36.368Z,37.02
2018-03-29T09:22:04.155Z,39.86
2018-03-29T09:24:31.711Z,43.72
2018-03-29T09:26:59.363Z,41.06
2018-03-29T09:29:26.915Z,38.74
2018-03-29T09:31:54.551Z,35.62
2018-03-29T09:34:22.503Z,42.28
2018-03-29T09:36:50.295Z,41.16
2018-03-29T09:39:18.060Z,35.73
2018-03-29T09:41:45.816Z,37.69
2018-03-29T09:44:13.492Z,37.74
2018-03-29T09:46:41.088Z,41.61
2018-03-29T09:49:08.657Z,40.71
2018-03-29T09:51:36.281Z,42.10
2018-03-29T09:54:03.846Z,42.76
2018-03-29T09:56:31.560Z,41.17
2018-03-29T09:58:59.221Z,39.01
2018-03-29T10:01:27.063Z,36.25
2018-03-29T10:04:00.336Z,39.96
2018-03-29T10:06:27.966Z,38.00
2018-03-29T10:08:55.573Z,33.79
2018-03-29T10:11:23.275Z,34.72
2018-03-29T10:13:50.807Z,37.42
2018-03-29T10:16:18.441Z,36.56
2018-03-29T10:18:45.992Z,30.70
2018-03-29T10:21:13.733Z,32.88
2018-03-29T10:23:42.277Z,32.23
2018-03-29T10:26:10.071Z,33.55
2018-03-29T10:28:38.404Z,33.65
2018-03-29T10:31:06.005Z,34.32
2018-03-29T10:33:34.358Z,37.52
2018-03-29T10:36:02.527Z,37.63
2018-03-29T10:38:30.107Z,43.59
2018-03-29T10:40:57.727Z,39.23
2018-03-29T10:43:25.700Z,37.59
2018-03-29T10:45:53.367Z,37.76
2018-03-29T10:48:21.038Z,37.00
2018-03-29T10:50:48.674Z,35.49
2018-03-29T10:53:17.462Z,37.70
2018-03-29T10:55:45.257Z,36.81
2018-03-29T10:58:13.830Z,36.70
2018-03-29T11:00:41.983Z,39.43
2018-03-29T11:03:10.934Z,38.42
2018-03-29T11:05:40.104Z,39.65
2018-03-29T11:08:08.440Z,38.01
2018-03-29T11:10:36.266Z,36.69
2018-03-29T11:13:04.275Z,35.36
2018-03-29T11:15:32.361Z,36.45
2018-03-29T11:18:00.137Z,37.05
2018-03-29T11:20:28.204Z,35.29
2018-03-29T11:22:56.508Z,33.93
2018-03-29T11:25:24.445Z,33.69
2018-03-29T11:27:52.290Z,35.83
2018-03-29T11:30:20.152Z,33.17
2018-03-29T11:32:48.347Z,34.92
2018-03-29T11:35:16.288Z,37.61
2018-03-29T11:37:44.328Z,34.47
2018-03-29T11:40:12.422Z,34.75
2018-03-29T11:42:41.377Z,34.76
2018-03-29T11:45:11.143Z,38.87
2018-03-29T11:47:39.101Z,38.49
2018-03-29T11:50:07.163Z,40.42
2018-03-29T11:52:35.423Z,36.87
2018-03-29T11:55:03.582Z,37.92
2018-03-29T11:57:32.268Z,34.76
2018-03-29T12:00:00.223Z,35.43
2018-03-29T12:02:29.022Z,31.20
2018-03-29T12:04:57.038Z,30.85
2018-03-29T12:07:26.418Z,28.45
2018-03-29T12:09:54.885Z,28.77
2018-03-29T12:12:23.078Z,29.59
2018-03-29T12:14:51.293Z,27.87
2018-03-29T12:17:19.211Z,30.48
2018-03-29T12:19:47.031Z,33.55
2018-03-29T12:22:14.790Z,31.91
2018-03-29T12:24:42.532Z,31.34
2018-03-29T12:27:10.616Z,30.60
2018-03-29T12:29:38.691Z,30.30
2018-03-29T12:32:06.467Z,30.91
2018-03-29T12:34:34.753Z,30.89
2018-03-29T12:37:02.703Z,32.19
2018-03-29T12:39:31.118Z,30.27
2018-03-29T12:41:58.882Z,28.07
2018-03-29T12:44:26.794Z,25.14
2018-03-29T12:46:54.585Z,26.82
2018-03-29T12:49:22.292Z,23.99
2018-03-29T12:51:50.225Z,27.38
2018-03-29T12:54:18.076Z,30.63
2018-03-29T12:56:57.870Z,33.51
2018-03-29T12:59:25.670Z,34.88
2018-03-29T13:01:53.947Z,35.41
2018-03-29T13:04:21.894Z,38.96
2018-03-29T13:06:49.550Z,34.76
2018-03-29T13:09:17.236Z,36.80
2018-03-29T13:11:44.804Z,38.00
2018-03-29T13:14:12.561Z,38.64
2018-03-29T13:16:40.938Z,40.46
2018-03-29T13:19:08.487Z,38.94
2018-03-29T13:21:36.178Z,37.65
2018-03-29T13:24:04.029Z,36.48
2018-03-29T13:26:31.619Z,36.30
2018-03-29T13:28:59.512Z,35.11
2018-03-29T13:31:27.188Z,35.04
2018-03-29T13:33:54.857Z,34.54
2018-03-29T13:36:22.634Z,34.32
2018-03-29T13:38:50.167Z,35.25
2018-03-29T13:41:17.839Z,35.77
2018-03-29T13:43:45.471Z,39.30
2018-03-29T13:46:13.334Z,40.53
2018-03-29T13:48:41.006Z,37.97
2018-03-29T13:51:08.714Z,37.34
2018-03-29T13:53:37.443Z,38.39
2018-03-29T13:56:05.156Z,38.55
2018-03-29T13:58:33.338Z,40.64
2018-03-29T14:01:00.999Z,40.59
2018-03-29T14:03:28.855Z,41.18
2018-03-29T14:05:57.408Z,42.26
2018-03-29T14:08:25.204Z,42.85
2018-03-29T14:10:52.800Z,43.54
2018-03-29T14:13:20.499Z,42.42
2018-03-29T14:15:49.083Z,42.96
2018-03-29T14:18:16.891Z,42.26
2018-03-29T14:20:44.599Z,43.66
2018-03-29T14:23:12.157Z,43.18
2018-03-29T14:25:39.954Z,43.18
2018-03-29T14:28:07.488Z,42.38
2018-03-29T14:30:35.284Z,42.40
2018-03-29T14:33:02.941Z,42.61
2018-03-29T14:35:30.794Z,42.29
2018-03-29T14:37:59.032Z,42.97
2018-03-29T14:40:26.594Z,41.30
2018-03-29T14:42:55.173Z,42.53
2018-03-29T14:45:22.906Z,42.41
2018-03-29T14:47:50.608Z,41.60
2018-03-29T14:50:18.419Z,43.35
2018-03-29T14:52:46.093Z,44.51
2018-03-29T14:55:13.807Z,43.55
2018-03-29T14:57:42.479Z,44.86
2018-03-29T15:00:10.209Z,45.77
2018-03-29T15:02:37.848Z,43.67
2018-03-29T15:05:05.657Z,43.72
2018-03-29T15:07:33.379Z,44.83
2018-03-29T15:10:01.142Z,46.08
2018-03-29T15:12:28.970Z,44.42
2018-03-29T15:14:56.633Z,45.12
2018-03-29T15:17:24.288Z,45.08
2018-03-29T15:19:52.183Z,44.31
2018-03-29T15:22:20.133Z,45.05
2018-03-29T15:24:47.700Z,43.68
2018-03-29T15:27:16.222Z,43.80
2018-03-29T15:29:43.894Z,43.90
2018-03-29T15:32:11.975Z,43.90
2018-03-29T15:34:39.873Z,43.97
2018-03-29T15:37:07.649Z,43.73
2018-03-29T15:39:35.367Z,43.93
2018-03-29T15:42:03.129Z,45.66
2018-03-29T15:44:31.707Z,44.99
2018-03-29T15:46:59.410Z,47.16
2018-03-29T15:49:27.200Z,46.42
2018-03-29T15:51:54.792Z,45.61
2018-03-29T15:54:22.450Z,46.95
2018-03-29T15:56:50.014Z,47.18
2018-03-29T15:59:17.845Z,47.79
2018-03-29T16:01:45.577Z,46.12
2018-03-29T16:04:13.563Z,47.55
2018-03-29T16:06:41.205Z,49.58
2018-03-29T16:09:09.289Z,48.56
2018-03-29T16:11:37.038Z,49.68
2018-03-29T16:14:04.807Z,48.37
2018-03-29T16:16:32.744Z,49.59
2018-03-29T16:19:00.629Z,49.64
2018-03-29T16:21:28.543Z,49.48
2018-03-29T16:23:56.254Z,49.44
2018-03-29T16:26:24.006Z,49.25
2018-03-29T16:28:51.679Z,49.28
2018-03-29T16:31:19.238Z,49.23
2018-03-29T16:33:47.013Z,48.38
2018-03-29T16:36:14.689Z,49.61
2018-03-29T16:38:42.233Z,49.28
2018-03-29T16:41:09.894Z,49.32
2018-03-29T16:43:37.585Z,48.43
2018-03-29T16:46:05.323Z,49.19
2018-03-29T16:48:32.874Z,49.94
2018-03-29T16:51:00.463Z,49.65
2018-03-29T16:53:28.130Z,50.14
2018-03-29T16:55:55.704Z,49.76
2018-03-29T16:58:23.284Z,51.04
2018-03-29T17:00:50.908Z,50.35
2018-03-29T17:03:18.724Z,50.51
2018-03-29T17:05:46.355Z,49.72
2018-03-29T17:08:14.021Z,49.30
2018-03-29T17:10:42.040Z,50.89
2018-03-29T17:13:09.718Z,50.96
2018-03-29T17:15:37.408Z,49.68
2018-03-29T17:18:05.128Z,49.16
2018-03-29T17:20:32.828Z,49.44
2018-03-29T17:23:00.555Z,49.88
2018-03-29T17:25:28.430Z,49.09
2018-03-29T17:27:56.090Z,48.88
2018-03-29T17:30:23.858Z,49.86
2018-03-29T17:32:51.444Z,49.96
2018-03-29T17:35:19.125Z,50.33
2018-03-29T17:37:47.044Z,51.36
2018-03-29T17:40:14.652Z,51.90
2018-03-29T17:42:42.403Z,52.24
2018-03-29T17:45:10.551Z,52.39
2018-03-29T17:47:38.355Z,54.51
2018-03-29T17:50:05.994Z,58.14
2018-03-29T17:52:34.308Z,57.95
2018-03-29T17:55:01.950Z,59.56
2018-03-29T17:57:29.616Z,59.95
2018-03-29T17:59:57.532Z,61.06
2018-03-29T18:02:25.256Z,61.15
2018-03-29T18:04:52.881Z,60.57
2018-03-29T18:07:20.433Z,60.03
2018-03-29T18:09:48.221Z,60.02
2018-03-29T18:12:15.909Z,60.79
2018-03-29T18:14:43.602Z,61.78
2018-03-29T18:17:12.059Z,62.48
2018-03-29T18:19:40.064Z,64.29
2018-03-29T18:22:07.719Z,64.49
2018-03-29T18:24:35.523Z,64.58
2018-03-29T18:27:03.309Z,66.39
2018-03-29T18:29:31.066Z,66.82
2018-03-29T18:31:58.863Z,65.28
2018-03-29T18:34:27.361Z,65.79
2018-03-29T18:36:55.053Z,67.53
2018-03-29T18:39:22.752Z,68.14
2018-03-29T18:41:50.802Z,68.71
2018-03-29T18:44:18.354Z,71.75
2018-03-29T18:46:46.096Z,69.54
2018-03-29T18:49:14.072Z,69.54
2018-03-29T18:51:41.838Z,69.54
2018-03-29T19:04:12.361Z,70.24
2018-03-29T19:06:40.592Z,72.26
2018-03-29T19:09:08.555Z,74.61
2018-03-29T19:11:36.345Z,74.77
2018-03-29T19:14:04.060Z,74.75
2018-03-29T19:16:32.019Z,72.42
2018-03-29T19:19:00.039Z,73.12
2018-03-29T19:21:28.160Z,74.67
2018-03-29T19:23:55.834Z,74.90
2018-03-29T19:26:23.953Z,74.06
2018-03-29T19:28:51.861Z,74.67
2018-03-29T19:31:19.504Z,75.15
2018-03-29T19:33:47.140Z,77.60
2018-03-29T19:36:14.777Z,77.95
2018-03-29T19:38:42.625Z,79.92
2018-03-29T19:41:10.301Z,81.31
2018-03-29T19:43:37.844Z,80.46
2018-03-29T19:46:05.764Z,81.87
2018-03-29T19:48:33.701Z,80.91
2018-03-29T19:51:01.245Z,81.48
2018-03-29T19:53:29.024Z,82.38
2018-03-29T19:55:56.876Z,81.08
2018-03-29T19:58:25.640Z,79.84
2018-03-29T20:00:53.495Z,82.50
2018-03-29T20:03:21.931Z,82.32
2018-03-29T20:05:49.786Z,79.97
2018-03-29T20:08:17.345Z,79.47
2018-03-29T20:10:45.270Z,78.86
2018-03-29T20:13:13.236Z,79.69
2018-03-29T20:15:41.159Z,82.62
2018-03-29T20:18:09.012Z,82.48
2018-03-29T20:20:36.836Z,80.19
2018-03-29T20:23:04.521Z,80.97
2018-03-29T20:25:33.171Z,80.13
2018-03-29T20:28:01.117Z,81.58
2018-03-29T20:30:29.176Z,80.48
2018-03-29T20:32:56.752Z,79.39
2018-03-29T20:35:24.497Z,79.98
2018-03-29T20:37:52.291Z,79.04
2018-03-29T20:40:20.275Z,80.02
2018-03-29T20:42:48.036Z,81.18
2018-03-29T20:45:15.962Z,82.20
2018-03-29T20:47:44.051Z,80.36
2018-03-29T20:50:12.723Z,80.67
2018-03-29T20:52:40.690Z,81.54
2018-03-29T20:55:08.575Z,81.34
2018-03-29T20:57:36.347Z,83.36
2018-03-29T21:00:04.270Z,83.74
2018-03-29T21:02:32.027Z,82.46
2018-03-29T21:05:00.473Z,82.16
2018-03-29T21:07:28.333Z,81.77
2018-03-29T21:09:56.608Z,80.18
2018-03-29T21:12:24.381Z,80.43
2018-03-29T21:14:53.005Z,82.24
2018-03-29T21:17:21.254Z,82.70
2018-03-29T21:19:48.980Z,83.79
2018-03-29T21:22:16.668Z,83.71
2018-03-29T21:24:44.511Z,83.92
2018-03-29T21:27:13.125Z,85.59
2018-03-29T21:29:41.056Z,83.75
2018-03-29T21:32:09.087Z,83.76
2018-03-29T21:34:37.401Z,84.47
2018-03-29T21:37:05.935Z,83.31
2018-03-29T21:39:33.893Z,85.26
2018-03-29T21:42:01.801Z,85.74
2018-03-29T21:44:29.825Z,86.56
2018-03-29T21:46:57.836Z,86.51
2018-03-29T21:49:26.113Z,85.76
2018-03-29T21:51:53.980Z,85.86
2018-03-29T21:54:21.863Z,87.18
2018-03-29T21:56:50.037Z,87.58
2018-03-29T21:59:18.659Z,86.33
2018-03-29T22:01:46.655Z,86.24
2018-03-29T22:04:14.500Z,85.21
2018-03-29T22:06:42.340Z,85.20
2018-03-29T22:09:10.455Z,85.76
2018-03-29T22:11:38.350Z,87.15
2018-03-29T22:14:06.461Z,86.14
2018-03-29T22:16:34.268Z,85.32
2018-03-29T22:19:02.452Z,85.73
2018-03-29T22:21:30.182Z,86.75
2018-03-29T22:23:58.043Z,87.57
2018-03-29T22:26:25.840Z,86.94
2018-03-29T22:28:54.705Z,85.88
2018-03-29T22:31:23.276Z,88.14
2018-03-29T22:33:51.252Z,89.41
2018-03-29T22:36:19.389Z,89.22
2018-03-29T22:38:47.607Z,89.19
2018-03-29T22:41:15.710Z,88.74
2018-03-29T22:43:43.721Z,88.15
2018-03-29T22:46:11.792Z,88.22
2018-03-29T22:48:39.557Z,87.84
2018-03-29T22:51:07.079Z,87.88
2018-03-29T22:53:35.006Z,87.24
2018-03-29T22:56:03.171Z,87.14
2018-03-29T22:58:31.426Z,86.01
2018-03-29T23:00:59.402Z,86.90
2018-03-29T23:03:27.172Z,87.09
2018-03-29T23:05:54.929Z,87.58
2018-03-29T23:08:22.627Z,86.86
2018-03-29T23:10:50.766Z,88.13
2018-03-29T23:13:18.917Z,87.77
2018-03-29T23:15:46.881Z,88.19
2018-03-29T23:18:14.611Z,85.97
2018-03-29T23:20:42.341Z,86.12
2018-03-29T23:23:10.096Z,86.59
2018-03-29T23:25:37.820Z,87.21
2018-03-29T23:28:05.581Z,87.57
2018-03-29T23:30:34.086Z,87.56
2018-03-29T23:33:01.701Z,89.77
2018-03-29T23:35:30.323Z,90.83
2018-03-29T23:37:58.091Z,91.16
2018-03-29T23:40:26.772Z,90.46
2018-03-29T23:42:54.386Z,89.60
2018-03-29T23:45:22.270Z,90.80
2018-03-29T23:47:50.371Z,91.08
2018-03-29T23:50:18.023Z,88.91
2018-03-29T23:52:45.946Z,88.07
2018-03-29T23:55:13.645Z,90.67
2018-03-29T23:57:41.315Z,91.67
